sensor_id;sensor_type;location;lat;lon;timestamp;P1;durP1;ratioP1;P2;durP2;ratioP2
63534;SDS011;55128;50.230;18.944;2022-11-20T00:03:47;117.55;;;57.00;;
63534;SDS011;55128;50.230;18.944;2022-11-20T00:08:48;137.57;;;63.70;;
63534;SDS011;55128;50.230;18.944;2022-11-20T00:13:50;178.05;;;79.60;;
63534;SDS011;55128;50.230;18.944;2022-11-20T00:18:52;185.43;;;77.72;;
63534;SDS011;55128;50.230;18.944;2022-11-20T00:23:54;205.45;;;80.78;;
63534;SDS011;55128;50.230;18.944;2022-11-20T00:28:57;147.38;;;64.85;;
63534;SDS011;55128;50.230;18.944;2022-11-20T00:33:59;160.45;;;66.63;;
63534;SDS011;55128;50.230;18.944;2022-11-20T00:38:59;127.82;;;57.05;;
63534;SDS011;55128;50.230;18.944;2022-11-20T00:44:00;107.68;;;50.20;;
63534;SDS011;55128;50.230;18.944;2022-11-20T00:49:00;103.10;;;48.05;;
63534;SDS011;55128;50.230;18.944;2022-11-20T00:54:01;113.43;;;51.58;;
63534;SDS011;55128;50.230;18.944;2022-11-20T00:59:02;106.93;;;49.28;;
63534;SDS011;55128;50.230;18.944;2022-11-20T01:04:02;125.18;;;54.72;;
63534;SDS011;55128;50.230;18.944;2022-11-20T01:09:05;142.75;;;63.25;;
63534;SDS011;55128;50.230;18.944;2022-11-20T01:14:10;124.75;;;54.05;;
63534;SDS011;55128;50.230;18.944;2022-11-20T01:19:17;127.90;;;58.28;;
63534;SDS011;55128;50.230;18.944;2022-11-20T01:24:22;131.90;;;61.67;;
63534;SDS011;55128;50.230;18.944;2022-11-20T01:29:23;137.27;;;61.15;;
63534;SDS011;55128;50.230;18.944;2022-11-20T01:34:24;161.38;;;69.82;;
63534;SDS011;55128;50.230;18.944;2022-11-20T01:39:25;139.13;;;63.75;;
63534;SDS011;55128;50.230;18.944;2022-11-20T01:49:56;131.45;;;60.97;;
63534;SDS011;55128;50.230;18.944;2022-11-20T01:55:21;164.10;;;74.18;;
63534;SDS011;55128;50.230;18.944;2022-11-20T02:00:26;146.80;;;65.22;;
63534;SDS011;55128;50.230;18.944;2022-11-20T02:05:28;147.98;;;65.82;;
63534;SDS011;55128;50.230;18.944;2022-11-20T02:10:34;231.75;;;93.57;;
63534;SDS011;55128;50.230;18.944;2022-11-20T02:15:35;153.65;;;71.43;;
63534;SDS011;55128;50.230;18.944;2022-11-20T02:20:36;156.38;;;68.47;;
63534;SDS011;55128;50.230;18.944;2022-11-20T02:25:37;156.13;;;76.05;;
63534;SDS011;55128;50.230;18.944;2022-11-20T02:30:38;191.77;;;82.68;;
63534;SDS011;55128;50.230;18.944;2022-11-20T02:35:40;222.00;;;93.10;;
63534;SDS011;55128;50.230;18.944;2022-11-20T02:40:45;245.38;;;101.10;;
63534;SDS011;55128;50.230;18.944;2022-11-20T02:45:45;224.43;;;96.00;;
63534;SDS011;55128;50.230;18.944;2022-11-20T02:50:46;217.18;;;89.93;;
63534;SDS011;55128;50.230;18.944;2022-11-20T02:55:46;172.18;;;74.22;;
63534;SDS011;55128;50.230;18.944;2022-11-20T03:00:47;155.02;;;70.70;;
63534;SDS011;55128;50.230;18.944;2022-11-20T03:05:47;136.43;;;60.42;;
63534;SDS011;55128;50.230;18.944;2022-11-20T03:10:48;135.68;;;62.17;;
63534;SDS011;55128;50.230;18.944;2022-11-20T03:15:48;139.60;;;64.88;;
63534;SDS011;55128;50.230;18.944;2022-11-20T03:20:49;125.85;;;59.58;;
63534;SDS011;55128;50.230;18.944;2022-11-20T03:25:50;135.68;;;66.15;;
63534;SDS011;55128;50.230;18.944;2022-11-20T03:30:51;143.65;;;65.30;;
63534;SDS011;55128;50.230;18.944;2022-11-20T03:35:51;116.10;;;53.70;;
63534;SDS011;55128;50.230;18.944;2022-11-20T03:40:57;106.63;;;51.42;;
63534;SDS011;55128;50.230;18.944;2022-11-20T03:45:59;98.75;;;46.92;;
63534;SDS011;55128;50.230;18.944;2022-11-20T03:51:34;102.90;;;48.65;;
63534;SDS011;55128;50.230;18.944;2022-11-20T03:56:31;108.63;;;48.60;;
63534;SDS011;55128;50.230;18.944;2022-11-20T04:01:34;115.30;;;54.43;;
63534;SDS011;55128;50.230;18.944;2022-11-20T04:06:39;113.53;;;54.00;;
63534;SDS011;55128;50.230;18.944;2022-11-20T04:11:40;108.43;;;51.50;;
63534;SDS011;55128;50.230;18.944;2022-11-20T04:16:40;107.00;;;51.40;;
63534;SDS011;55128;50.230;18.944;2022-11-20T04:21:42;110.13;;;51.63;;
63534;SDS011;55128;50.230;18.944;2022-11-20T04:26:43;103.95;;;53.30;;
63534;SDS011;55128;50.230;18.944;2022-11-20T04:31:44;107.75;;;52.58;;
63534;SDS011;55128;50.230;18.944;2022-11-20T04:36:44;106.78;;;51.70;;
63534;SDS011;55128;50.230;18.944;2022-11-20T04:41:45;109.40;;;54.95;;
63534;SDS011;55128;50.230;18.944;2022-11-20T04:46:45;103.18;;;52.35;;
63534;SDS011;55128;50.230;18.944;2022-11-20T04:51:46;105.25;;;50.42;;
63534;SDS011;55128;50.230;18.944;2022-11-20T04:56:49;102.40;;;50.97;;
63534;SDS011;55128;50.230;18.944;2022-11-20T05:01:50;115.57;;;54.67;;
63534;SDS011;55128;50.230;18.944;2022-11-20T05:06:51;99.28;;;54.25;;
63534;SDS011;55128;50.230;18.944;2022-11-20T05:11:51;105.55;;;50.25;;
63534;SDS011;55128;50.230;18.944;2022-11-20T05:16:52;103.00;;;51.03;;
63534;SDS011;55128;50.230;18.944;2022-11-20T05:21:52;102.97;;;50.38;;
63534;SDS011;55128;50.230;18.944;2022-11-20T05:26:53;114.45;;;55.08;;
63534;SDS011;55128;50.230;18.944;2022-11-20T05:31:53;106.07;;;53.17;;
63534;SDS011;55128;50.230;18.944;2022-11-20T05:36:54;107.75;;;52.10;;
63534;SDS011;55128;50.230;18.944;2022-11-20T05:41:55;111.20;;;53.10;;
63534;SDS011;55128;50.230;18.944;2022-11-20T05:47:14;103.70;;;52.03;;
63534;SDS011;55128;50.230;18.944;2022-11-20T05:52:14;108.20;;;55.70;;
63534;SDS011;55128;50.230;18.944;2022-11-20T05:57:15;107.32;;;52.17;;
63534;SDS011;55128;50.230;18.944;2022-11-20T06:02:16;106.32;;;52.65;;
63534;SDS011;55128;50.230;18.944;2022-11-20T06:07:16;106.85;;;51.95;;
63534;SDS011;55128;50.230;18.944;2022-11-20T06:12:17;125.80;;;53.65;;
63534;SDS011;55128;50.230;18.944;2022-11-20T06:17:17;122.63;;;54.45;;
63534;SDS011;55128;50.230;18.944;2022-11-20T06:22:18;163.43;;;79.43;;
63534;SDS011;55128;50.230;18.944;2022-11-20T06:27:18;117.82;;;55.78;;
63534;SDS011;55128;50.230;18.944;2022-11-20T06:32:19;123.57;;;62.70;;
63534;SDS011;55128;50.230;18.944;2022-11-20T06:37:20;117.47;;;56.20;;
63534;SDS011;55128;50.230;18.944;2022-11-20T06:42:20;127.13;;;59.42;;
63534;SDS011;55128;50.230;18.944;2022-11-20T06:47:21;108.93;;;54.00;;
63534;SDS011;55128;50.230;18.944;2022-11-20T06:52:21;113.40;;;58.90;;
63534;SDS011;55128;50.230;18.944;2022-11-20T06:57:22;108.13;;;52.78;;
63534;SDS011;55128;50.230;18.944;2022-11-20T07:02:22;120.72;;;56.72;;
63534;SDS011;55128;50.230;18.944;2022-11-20T07:07:23;147.88;;;74.88;;
63534;SDS011;55128;50.230;18.944;2022-11-20T07:12:24;136.93;;;70.82;;
63534;SDS011;55128;50.230;18.944;2022-11-20T07:17:24;127.45;;;66.30;;
63534;SDS011;55128;50.230;18.944;2022-11-20T07:22:25;126.75;;;69.95;;
63534;SDS011;55128;50.230;18.944;2022-11-20T07:27:26;132.88;;;71.47;;
63534;SDS011;55128;50.230;18.944;2022-11-20T07:32:27;128.98;;;74.78;;
63534;SDS011;55128;50.230;18.944;2022-11-20T07:37:27;150.82;;;80.50;;
63534;SDS011;55128;50.230;18.944;2022-11-20T07:42:28;137.48;;;79.97;;
63534;SDS011;55128;50.230;18.944;2022-11-20T07:47:28;140.98;;;80.25;;
63534;SDS011;55128;50.230;18.944;2022-11-20T07:52:34;154.95;;;87.90;;
63534;SDS011;55128;50.230;18.944;2022-11-20T07:57:35;116.88;;;67.78;;
63534;SDS011;55128;50.230;18.944;2022-11-20T08:02:41;118.43;;;65.22;;
63534;SDS011;55128;50.230;18.944;2022-11-20T08:07:43;105.97;;;61.85;;
63534;SDS011;55128;50.230;18.944;2022-11-20T08:12:44;98.13;;;58.17;;
63534;SDS011;55128;50.230;18.944;2022-11-20T08:18:08;104.20;;;59.75;;
63534;SDS011;55128;50.230;18.944;2022-11-20T08:23:11;101.03;;;61.05;;
63534;SDS011;55128;50.230;18.944;2022-11-20T08:28:11;103.85;;;56.55;;
63534;SDS011;55128;50.230;18.944;2022-11-20T08:33:13;99.10;;;58.35;;
63534;SDS011;55128;50.230;18.944;2022-11-20T08:38:14;95.60;;;55.67;;
63534;SDS011;55128;50.230;18.944;2022-11-20T08:43:14;93.57;;;54.50;;
63534;SDS011;55128;50.230;18.944;2022-11-20T08:48:15;89.20;;;51.80;;
63534;SDS011;55128;50.230;18.944;2022-11-20T08:53:15;85.13;;;49.78;;
63534;SDS011;55128;50.230;18.944;2022-11-20T08:58:16;78.88;;;46.47;;
63534;SDS011;55128;50.230;18.944;2022-11-20T09:03:17;81.18;;;48.28;;
63534;SDS011;55128;50.230;18.944;2022-11-20T09:08:17;83.70;;;49.22;;
63534;SDS011;55128;50.230;18.944;2022-11-20T09:13:19;80.50;;;47.92;;
63534;SDS011;55128;50.230;18.944;2022-11-20T09:18:20;77.88;;;47.72;;
63534;SDS011;55128;50.230;18.944;2022-11-20T09:23:21;78.00;;;46.83;;
63534;SDS011;55128;50.230;18.944;2022-11-20T09:28:22;78.35;;;47.63;;
63534;SDS011;55128;50.230;18.944;2022-11-20T09:33:23;81.68;;;47.50;;
63534;SDS011;55128;50.230;18.944;2022-11-20T09:38:23;104.22;;;56.88;;
63534;SDS011;55128;50.230;18.944;2022-11-20T09:43:40;83.90;;;46.97;;
63534;SDS011;55128;50.230;18.944;2022-11-20T09:54:36;79.78;;;43.90;;
63534;SDS011;55128;50.230;18.944;2022-11-20T09:59:43;69.45;;;40.15;;
63534;SDS011;55128;50.230;18.944;2022-11-20T10:04:55;255.93;;;95.93;;
63534;SDS011;55128;50.230;18.944;2022-11-20T10:10:02;95.93;;;52.78;;
63534;SDS011;55128;50.230;18.944;2022-11-20T10:15:55;126.70;;;63.15;;
63534;SDS011;55128;50.230;18.944;2022-11-20T10:31:34;82.00;;;46.40;;
63534;SDS011;55128;50.230;18.944;2022-11-20T10:36:43;85.90;;;47.67;;
63534;SDS011;55128;50.230;18.944;2022-11-20T10:41:47;81.55;;;47.58;;
63534;SDS011;55128;50.230;18.944;2022-11-20T10:46:50;76.93;;;44.28;;
63534;SDS011;55128;50.230;18.944;2022-11-20T10:52:09;63.28;;;41.45;;
63534;SDS011;55128;50.230;18.944;2022-11-20T11:03:20;77.60;;;46.45;;
63534;SDS011;55128;50.230;18.944;2022-11-20T11:08:28;140.82;;;67.70;;
63534;SDS011;55128;50.230;18.944;2022-11-20T11:13:34;91.38;;;52.47;;
63534;SDS011;55128;50.230;18.944;2022-11-20T11:18:34;91.90;;;52.42;;
63534;SDS011;55128;50.230;18.944;2022-11-20T11:23:36;234.32;;;107.85;;
63534;SDS011;55128;50.230;18.944;2022-11-20T11:28:39;107.75;;;63.88;;
63534;SDS011;55128;50.230;18.944;2022-11-20T11:33:39;85.30;;;51.83;;
63534;SDS011;55128;50.230;18.944;2022-11-20T11:38:41;92.72;;;59.40;;
63534;SDS011;55128;50.230;18.944;2022-11-20T11:43:49;87.35;;;49.05;;
63534;SDS011;55128;50.230;18.944;2022-11-20T11:49:15;74.50;;;46.72;;
63534;SDS011;55128;50.230;18.944;2022-11-20T11:54:20;79.00;;;49.25;;
63534;SDS011;55128;50.230;18.944;2022-11-20T11:59:27;78.93;;;47.90;;
63534;SDS011;55128;50.230;18.944;2022-11-20T12:09:52;78.65;;;48.47;;
63534;SDS011;55128;50.230;18.944;2022-11-20T12:14:55;81.30;;;49.97;;
63534;SDS011;55128;50.230;18.944;2022-11-20T12:19:57;71.13;;;42.08;;
63534;SDS011;55128;50.230;18.944;2022-11-20T12:24:59;71.60;;;42.70;;
63534;SDS011;55128;50.230;18.944;2022-11-20T12:30:17;160.50;;;73.45;;
63534;SDS011;55128;50.230;18.944;2022-11-20T12:40:36;95.15;;;52.50;;
63534;SDS011;55128;50.230;18.944;2022-11-20T12:51:14;72.80;;;45.78;;
63534;SDS011;55128;50.230;18.944;2022-11-20T13:01:55;100.90;;;54.17;;
63534;SDS011;55128;50.230;18.944;2022-11-20T13:07:15;76.35;;;43.03;;
63534;SDS011;55128;50.230;18.944;2022-11-20T13:12:25;72.78;;;46.42;;
63534;SDS011;55128;50.230;18.944;2022-11-20T13:17:43;73.78;;;44.60;;
63534;SDS011;55128;50.230;18.944;2022-11-20T13:22:52;76.72;;;43.83;;
63534;SDS011;55128;50.230;18.944;2022-11-20T13:27:59;82.88;;;45.92;;
63534;SDS011;55128;50.230;18.944;2022-11-20T13:38:28;128.55;;;65.22;;
63534;SDS011;55128;50.230;18.944;2022-11-20T13:43:41;98.20;;;50.28;;
63534;SDS011;55128;50.230;18.944;2022-11-20T13:48:45;95.45;;;51.75;;
63534;SDS011;55128;50.230;18.944;2022-11-20T13:53:48;97.85;;;53.88;;
63534;SDS011;55128;50.230;18.944;2022-11-20T14:04:49;80.10;;;45.58;;
63534;SDS011;55128;50.230;18.944;2022-11-20T14:09:55;84.97;;;47.50;;
63534;SDS011;55128;50.230;18.944;2022-11-20T14:14:57;165.35;;;80.85;;
63534;SDS011;55128;50.230;18.944;2022-11-20T14:20:06;134.73;;;70.05;;
63534;SDS011;55128;50.230;18.944;2022-11-20T14:30:15;119.80;;;65.15;;
63534;SDS011;55128;50.230;18.944;2022-11-20T14:35:25;84.88;;;48.38;;
63534;SDS011;55128;50.230;18.944;2022-11-20T14:40:34;92.15;;;51.67;;
63534;SDS011;55128;50.230;18.944;2022-11-20T14:45:36;98.70;;;56.28;;
63534;SDS011;55128;50.230;18.944;2022-11-20T14:50:38;451.40;;;162.50;;
63534;SDS011;55128;50.230;18.944;2022-11-20T14:55:39;102.00;;;54.70;;
63534;SDS011;55128;50.230;18.944;2022-11-20T15:00:41;105.40;;;55.72;;
63534;SDS011;55128;50.230;18.944;2022-11-20T15:05:45;116.88;;;59.95;;
63534;SDS011;55128;50.230;18.944;2022-11-20T15:10:49;109.47;;;58.17;;
63534;SDS011;55128;50.230;18.944;2022-11-20T15:15:52;102.55;;;57.08;;
63534;SDS011;55128;50.230;18.944;2022-11-20T15:21:00;105.53;;;58.38;;
63534;SDS011;55128;50.230;18.944;2022-11-20T15:26:10;103.50;;;59.60;;
63534;SDS011;55128;50.230;18.944;2022-11-20T15:31:12;103.18;;;58.90;;
63534;SDS011;55128;50.230;18.944;2022-11-20T15:36:14;120.32;;;66.25;;
63534;SDS011;55128;50.230;18.944;2022-11-20T15:41:15;144.52;;;71.28;;
63534;SDS011;55128;50.230;18.944;2022-11-20T15:46:16;131.10;;;67.70;;
63534;SDS011;55128;50.230;18.944;2022-11-20T15:51:33;162.05;;;74.53;;
63534;SDS011;55128;50.230;18.944;2022-11-20T15:56:35;165.60;;;76.40;;
63534;SDS011;55128;50.230;18.944;2022-11-20T16:01:35;134.05;;;67.78;;
63534;SDS011;55128;50.230;18.944;2022-11-20T16:06:36;112.20;;;61.42;;
63534;SDS011;55128;50.230;18.944;2022-11-20T16:11:37;151.45;;;75.65;;
63534;SDS011;55128;50.230;18.944;2022-11-20T16:16:37;171.10;;;79.60;;
63534;SDS011;55128;50.230;18.944;2022-11-20T16:21:40;211.77;;;97.82;;
63534;SDS011;55128;50.230;18.944;2022-11-20T16:26:41;119.20;;;64.38;;
63534;SDS011;55128;50.230;18.944;2022-11-20T16:31:42;135.23;;;71.75;;
63534;SDS011;55128;50.230;18.944;2022-11-20T16:36:43;95.70;;;51.40;;
63534;SDS011;55128;50.230;18.944;2022-11-20T16:41:44;89.53;;;49.05;;
63534;SDS011;55128;50.230;18.944;2022-11-20T16:46:45;88.18;;;47.70;;
63534;SDS011;55128;50.230;18.944;2022-11-20T16:51:46;160.65;;;93.00;;
63534;SDS011;55128;50.230;18.944;2022-11-20T16:56:46;111.93;;;61.75;;
63534;SDS011;55128;50.230;18.944;2022-11-20T17:01:47;104.22;;;57.53;;
63534;SDS011;55128;50.230;18.944;2022-11-20T17:06:48;96.82;;;51.58;;
63534;SDS011;55128;50.230;18.944;2022-11-20T17:11:48;127.80;;;67.03;;
63534;SDS011;55128;50.230;18.944;2022-11-20T17:16:49;246.60;;;103.93;;
63534;SDS011;55128;50.230;18.944;2022-11-20T17:21:49;145.57;;;61.00;;
63534;SDS011;55128;50.230;18.944;2022-11-20T17:26:50;174.82;;;66.45;;
63534;SDS011;55128;50.230;18.944;2022-11-20T17:31:51;63.72;;;32.47;;
63534;SDS011;55128;50.230;18.944;2022-11-20T17:36:53;70.45;;;34.35;;
63534;SDS011;55128;50.230;18.944;2022-11-20T17:41:54;67.47;;;32.17;;
63534;SDS011;55128;50.230;18.944;2022-11-20T17:47:13;58.58;;;30.15;;
63534;SDS011;55128;50.230;18.944;2022-11-20T17:52:15;57.88;;;28.67;;
63534;SDS011;55128;50.230;18.944;2022-11-20T17:57:15;57.38;;;29.30;;
63534;SDS011;55128;50.230;18.944;2022-11-20T18:02:34;57.35;;;29.10;;
63534;SDS011;55128;50.230;18.944;2022-11-20T18:07:35;80.57;;;35.03;;
63534;SDS011;55128;50.230;18.944;2022-11-20T18:12:37;68.88;;;32.03;;
63534;SDS011;55128;50.230;18.944;2022-11-20T18:17:38;66.70;;;33.30;;
63534;SDS011;55128;50.230;18.944;2022-11-20T18:22:38;67.22;;;33.10;;
63534;SDS011;55128;50.230;18.944;2022-11-20T18:27:39;70.70;;;35.45;;
63534;SDS011;55128;50.230;18.944;2022-11-20T18:32:39;67.18;;;33.15;;
63534;SDS011;55128;50.230;18.944;2022-11-20T18:37:40;60.17;;;30.52;;
63534;SDS011;55128;50.230;18.944;2022-11-20T18:42:41;57.08;;;29.02;;
63534;SDS011;55128;50.230;18.944;2022-11-20T18:48:00;49.33;;;26.88;;
63534;SDS011;55128;50.230;18.944;2022-11-20T18:53:00;50.42;;;24.88;;
63534;SDS011;55128;50.230;18.944;2022-11-20T18:58:01;44.15;;;24.05;;
63534;SDS011;55128;50.230;18.944;2022-11-20T19:03:01;45.97;;;24.25;;
63534;SDS011;55128;50.230;18.944;2022-11-20T19:08:02;41.65;;;24.08;;
63534;SDS011;55128;50.230;18.944;2022-11-20T19:13:03;44.33;;;23.38;;
63534;SDS011;55128;50.230;18.944;2022-11-20T19:18:03;40.05;;;22.52;;
63534;SDS011;55128;50.230;18.944;2022-11-20T19:23:04;43.35;;;23.20;;
63534;SDS011;55128;50.230;18.944;2022-11-20T19:28:05;47.65;;;26.35;;
63534;SDS011;55128;50.230;18.944;2022-11-20T19:33:05;62.45;;;31.80;;
63534;SDS011;55128;50.230;18.944;2022-11-20T19:38:06;63.00;;;32.08;;
63534;SDS011;55128;50.230;18.944;2022-11-20T19:43:07;66.13;;;35.90;;
63534;SDS011;55128;50.230;18.944;2022-11-20T19:48:07;67.53;;;37.72;;
63534;SDS011;55128;50.230;18.944;2022-11-20T19:53:08;64.20;;;34.28;;
63534;SDS011;55128;50.230;18.944;2022-11-20T19:58:10;59.78;;;32.35;;
63534;SDS011;55128;50.230;18.944;2022-11-20T20:03:11;53.15;;;28.98;;
63534;SDS011;55128;50.230;18.944;2022-11-20T20:08:11;54.35;;;29.67;;
63534;SDS011;55128;50.230;18.944;2022-11-20T20:13:12;52.15;;;25.95;;
63534;SDS011;55128;50.230;18.944;2022-11-20T20:18:13;43.28;;;23.40;;
63534;SDS011;55128;50.230;18.944;2022-11-20T20:23:14;45.35;;;24.27;;
63534;SDS011;55128;50.230;18.944;2022-11-20T20:28:15;50.47;;;25.60;;
63534;SDS011;55128;50.230;18.944;2022-11-20T20:33:15;70.60;;;37.13;;
63534;SDS011;55128;50.230;18.944;2022-11-20T20:38:16;100.20;;;47.42;;
63534;SDS011;55128;50.230;18.944;2022-11-20T20:43:16;82.72;;;40.00;;
63534;SDS011;55128;50.230;18.944;2022-11-20T20:48:18;78.50;;;37.40;;
63534;SDS011;55128;50.230;18.944;2022-11-20T20:53:19;64.53;;;32.35;;
63534;SDS011;55128;50.230;18.944;2022-11-20T20:58:20;78.35;;;39.00;;
63534;SDS011;55128;50.230;18.944;2022-11-20T21:03:21;75.72;;;35.88;;
63534;SDS011;55128;50.230;18.944;2022-11-20T21:08:22;67.10;;;36.00;;
63534;SDS011;55128;50.230;18.944;2022-11-20T21:13:24;80.93;;;39.53;;
63534;SDS011;55128;50.230;18.944;2022-11-20T21:18:25;61.47;;;31.30;;
63534;SDS011;55128;50.230;18.944;2022-11-20T21:23:26;72.72;;;37.05;;
63534;SDS011;55128;50.230;18.944;2022-11-20T21:28:27;72.93;;;35.28;;
63534;SDS011;55128;50.230;18.944;2022-11-20T21:33:39;84.68;;;41.80;;
63534;SDS011;55128;50.230;18.944;2022-11-20T21:38:44;114.57;;;50.63;;
63534;SDS011;55128;50.230;18.944;2022-11-20T21:43:45;86.70;;;39.58;;
63534;SDS011;55128;50.230;18.944;2022-11-20T21:48:46;81.63;;;39.00;;
63534;SDS011;55128;50.230;18.944;2022-11-20T21:53:47;75.07;;;36.80;;
63534;SDS011;55128;50.230;18.944;2022-11-20T21:58:49;103.68;;;47.65;;
63534;SDS011;55128;50.230;18.944;2022-11-20T22:08:56;112.68;;;50.03;;
63534;SDS011;55128;50.230;18.944;2022-11-20T22:13:56;109.90;;;49.20;;
63534;SDS011;55128;50.230;18.944;2022-11-20T22:19:16;82.00;;;39.67;;
63534;SDS011;55128;50.230;18.944;2022-11-20T22:24:18;72.05;;;37.20;;
63534;SDS011;55128;50.230;18.944;2022-11-20T22:29:20;65.22;;;37.70;;
63534;SDS011;55128;50.230;18.944;2022-11-20T22:34:20;66.20;;;36.20;;
63534;SDS011;55128;50.230;18.944;2022-11-20T22:39:21;69.35;;;37.40;;
63534;SDS011;55128;50.230;18.944;2022-11-20T22:44:22;62.53;;;33.85;;
63534;SDS011;55128;50.230;18.944;2022-11-20T22:49:22;59.40;;;31.02;;
63534;SDS011;55128;50.230;18.944;2022-11-20T22:54:23;54.72;;;28.83;;
63534;SDS011;55128;50.230;18.944;2022-11-20T22:59:23;53.97;;;28.55;;
63534;SDS011;55128;50.230;18.944;2022-11-20T23:04:24;53.42;;;29.65;;
63534;SDS011;55128;50.230;18.944;2022-11-20T23:09:24;50.30;;;26.83;;
63534;SDS011;55128;50.230;18.944;2022-11-20T23:14:25;50.83;;;26.13;;
63534;SDS011;55128;50.230;18.944;2022-11-20T23:19:25;50.95;;;26.63;;
63534;SDS011;55128;50.230;18.944;2022-11-20T23:24:26;49.95;;;26.17;;
63534;SDS011;55128;50.230;18.944;2022-11-20T23:29:26;47.45;;;25.10;;
63534;SDS011;55128;50.230;18.944;2022-11-20T23:34:27;47.80;;;25.65;;
63534;SDS011;55128;50.230;18.944;2022-11-20T23:39:27;44.00;;;24.92;;
63534;SDS011;55128;50.230;18.944;2022-11-20T23:44:28;46.55;;;23.38;;
63534;SDS011;55128;50.230;18.944;2022-11-20T23:49:28;41.55;;;22.52;;
63534;SDS011;55128;50.230;18.944;2022-11-20T23:54:29;43.13;;;24.50;;
63534;SDS011;55128;50.230;18.944;2022-11-20T23:59:30;43.83;;;24.60;;
